Time;durP1;ratioP1;P1;durP2;ratioP2;P2;SDS_P1;SDS_P2;PMS_P1;PMS_P2;Temp;Humidity;BMP_temperature;BMP_pressure;BME280_temperature;BME280_humidity;BME280_pressure;Samples;Min_cycle;Max_cycle;Signal;HPM_P1;HPM_P2
2023/02/26 00:01:47;;;;;;;5.75;3.35;;;;;;;;;;5081375;28;20027;-75
2023/02/26 00:04:13;;;;;;;4.75;3.38;;;;;;;;;;5064873;28;20024;-75
2023/02/26 00:06:51;;;;;;;6.55;3.70;;;;;;;;;;5088136;28;20030;-75
2023/02/26 00:09:17;;;;;;;4.45;3.20;;;;;;;;;;5076999;28;20497;-75
2023/02/26 00:11:43;;;;;;;5.10;3.38;;;;;;;;;;5087488;28;20049;-76
2023/02/26 00:14:12;;;;;;;6.03;3.47;;;;;;;;;;5083931;28;20020;-74
2023/02/26 00:16:39;;;;;;;5.32;3.50;;;;;;;;;;5079319;28;20021;-76
2023/02/26 00:19:06;;;;;;;10.07;4.60;;;;;;;;;;5089786;28;20398;-75
2023/02/26 00:21:32;;;;;;;3.90;3.38;;;;;;;;;;5079596;28;20054;-75
2023/02/26 00:23:59;;;;;;;5.93;3.08;;;;;;;;;;5084910;28;20020;-75
2023/02/26 00:26:26;;;;;;;5.25;3.10;;;;;;;;;;5085821;28;20035;-76
2023/02/26 00:28:52;;;;;;;4.82;2.92;;;;;;;;;;5076947;28;20031;-75
2023/02/26 00:31:19;;;;;;;3.08;2.75;;;;;;;;;;5089779;28;20021;-75
2023/02/26 00:33:46;;;;;;;4.75;3.08;;;;;;;;;;5080021;28;20038;-75
2023/02/26 00:36:20;;;;;;;4.32;3.13;;;;;;;;;;5082736;28;20029;-74
2023/02/26 00:38:50;;;;;;;7.57;3.20;;;;;;;;;;5088074;28;20119;-74
2023/02/26 00:41:16;;;;;;;4.47;2.80;;;;;;;;;;5076294;28;20599;-75
2023/02/26 00:43:42;;;;;;;3.90;2.83;;;;;;;;;;5093218;28;20024;-75
2023/02/26 00:46:21;;;;;;;5.55;3.38;;;;;;;;;;5082810;28;20036;-74
2023/02/26 00:49:08;;;;;;;7.18;3.13;;;;;;;;;;5087925;28;20035;-74
2023/02/26 00:51:43;;;;;;;6.00;3.03;;;;;;;;;;5064036;28;20103;-75
2023/02/26 00:54:19;;;;;;;3.67;2.83;;;;;;;;;;5082539;28;20657;-74
2023/02/26 00:56:45;;;;;;;3.72;2.42;;;;;;;;;;5087815;28;20032;-76
2023/02/26 00:59:11;;;;;;;3.40;2.58;;;;;;;;;;5076005;28;20024;-76
2023/02/26 01:01:37;;;;;;;3.20;2.53;;;;;;;;;;5087149;28;20507;-75
2023/02/26 01:04:03;;;;;;;2.80;2.40;;;;;;;;;;5081973;28;20024;-76
2023/02/26 01:06:32;;;;;;;7.47;2.90;;;;;;;;;;5061554;28;20090;-76
2023/02/26 01:09:00;;;;;;;3.17;2.50;;;;;;;;;;5072645;28;20048;-75
2023/02/26 01:11:27;;;;;;;2.55;2.28;;;;;;;;;;5088381;28;20025;-76
2023/02/26 01:13:53;;;;;;;4.00;2.80;;;;;;;;;;5072640;28;20020;-76
2023/02/26 01:16:24;;;;;;;3.95;2.20;;;;;;;;;;5083838;28;20020;-75
2023/02/26 01:18:54;;;;;;;3.88;2.58;;;;;;;;;;5076385;28;20033;-76
2023/02/26 01:21:25;;;;;;;2.90;2.25;;;;;;;;;;5070514;28;20426;-77
2023/02/26 01:23:51;;;;;;;;;;;;;;;;;;5073100;28;20474;-76
2023/02/26 01:26:28;;;;;;;4.38;2.35;;;;;;;;;;5083622;28;19908;-76
2023/02/26 01:28:54;;;;;;;3.33;2.72;;;;;;;;;;5075729;28;20033;-75
2023/02/26 01:31:23;;;;;;;4.45;2.53;;;;;;;;;;5088700;28;20099;-76
2023/02/26 01:33:59;;;;;;;3.00;2.72;;;;;;;;;;5079405;28;20027;-76
2023/02/26 01:36:28;;;;;;;5.50;2.97;;;;;;;;;;5079685;28;20040;-74
2023/02/26 01:39:09;;;;;;;4.32;2.90;;;;;;;;;;5088328;28;20020;-75
2023/02/26 01:41:50;;;;;;;3.75;2.97;;;;;;;;;;5062633;28;20024;-75
2023/02/26 01:44:19;;;;;;;6.25;3.38;;;;;;;;;;5080692;28;20036;-75
2023/02/26 01:47:04;;;;;;;7.43;3.92;;;;;;;;;;5087010;28;20066;-76
2023/02/26 01:49:30;;;;;;;5.68;3.40;;;;;;;;;;5061190;28;20032;-76
2023/02/26 01:51:57;;;;;;;3.50;3.20;;;;;;;;;;5091032;28;20024;-76
2023/02/26 01:54:37;;;;;;;4.72;3.00;;;;;;;;;;5061563;28;20028;-75
2023/02/26 01:57:07;;;;;;;4.97;3.30;;;;;;;;;;5069818;28;20032;-75
2023/02/26 01:59:34;;;;;;;5.18;3.28;;;;;;;;;;5076785;28;20050;-76
2023/02/26 02:02:02;;;;;;;5.65;3.50;;;;;;;;;;5082856;28;20483;-76
2023/02/26 02:04:28;;;;;;;5.40;3.28;;;;;;;;;;5084774;28;20027;-76
2023/02/26 02:06:54;;;;;;;4.68;3.78;;;;;;;;;;5057216;28;20027;-76
2023/02/26 02:09:20;;;;;;;6.25;3.60;;;;;;;;;;5087686;28;20082;-76
2023/02/26 02:12:02;;;;;;;5.30;3.53;;;;;;;;;;5060359;28;20051;-76
2023/02/26 02:14:33;;;;;;;6.80;3.55;;;;;;;;;;5078496;28;20098;-76
2023/02/26 02:17:02;;;;;;;6.13;4.13;;;;;;;;;;5087970;28;20035;-75
2023/02/26 02:19:46;;;;;;;8.85;4.00;;;;;;;;;;5075764;28;20016;-76
2023/02/26 02:22:19;;;;;;;6.38;3.42;;;;;;;;;;5080759;28;20075;-76
2023/02/26 02:24:52;;;;;;;7.13;4.38;;;;;;;;;;5086688;28;20058;-76
2023/02/26 02:27:23;;;;;;;6.90;4.25;;;;;;;;;;5074624;28;20024;-76
2023/02/26 02:30:12;;;;;;;6.90;3.60;;;;;;;;;;5084066;28;20367;-76
2023/02/26 02:32:51;;;;;;;6.20;4.07;;;;;;;;;;5085471;28;20024;-75
2023/02/26 02:35:22;;;;;;;6.93;3.65;;;;;;;;;;5074648;28;20087;-74
2023/02/26 02:37:52;;;;;;;7.55;3.95;;;;;;;;;;5083832;28;20612;-74
2023/02/26 02:40:21;;;;;;;6.55;4.07;;;;;;;;;;5082596;28;20086;-74
2023/02/26 02:42:57;;;;;;;4.55;3.88;;;;;;;;;;5075543;28;20036;-74
2023/02/26 02:45:41;;;;;;;4.38;3.58;;;;;;;;;;5040674;28;20058;-75
2023/02/26 02:48:11;;;;;;;3.50;3.20;;;;;;;;;;5080991;28;20032;-75
2023/02/26 02:50:40;;;;;;;5.43;4.13;;;;;;;;;;5071081;28;20108;-75
2023/02/26 02:53:13;;;;;;;5.60;4.30;;;;;;;;;;5071395;28;20082;-75
2023/02/26 02:55:42;;;;;;;6.28;3.70;;;;;;;;;;5085272;28;20029;-76
2023/02/26 02:58:14;;;;;;;8.77;4.55;;;;;;;;;;5081042;28;20025;-75
2023/02/26 03:00:43;;;;;;;6.53;4.15;;;;;;;;;;5076678;28;20050;-75
2023/02/26 03:03:24;;;;;;;7.20;4.53;;;;;;;;;;5087798;28;20108;-75
2023/02/26 03:05:50;;;;;;;4.90;3.53;;;;;;;;;;5071346;28;20036;-75
2023/02/26 03:08:17;;;;;;;7.20;4.80;;;;;;;;;;5082011;28;20389;-76
2023/02/26 03:10:43;;;;;;;7.30;4.75;;;;;;;;;;5076275;28;20021;-76
2023/02/26 03:13:17;;;;;;;7.18;4.35;;;;;;;;;;5087869;28;20129;-76
2023/02/26 03:15:52;;;;;;;7.57;4.60;;;;;;;;;;5060160;28;20020;-75
2023/02/26 03:18:21;;;;;;;6.72;4.93;;;;;;;;;;5080054;28;20037;-75
2023/02/26 03:20:55;;;;;;;5.30;4.50;;;;;;;;;;5079892;28;20115;-75
2023/02/26 03:23:28;;;;;;;4.88;4.30;;;;;;;;;;5068598;28;20575;-74
2023/02/26 03:25:55;;;;;;;6.70;4.63;;;;;;;;;;5094001;28;20024;-76
2023/02/26 03:28:29;;;;;;;7.40;4.97;;;;;;;;;;5091241;28;20041;-75
2023/02/26 03:31:15;;;;;;;5.93;4.25;;;;;;;;;;5079891;28;20054;-75
2023/02/26 03:33:50;;;;;;;7.50;5.05;;;;;;;;;;5067219;28;20494;-75
2023/02/26 03:36:16;;;;;;;8.23;5.32;;;;;;;;;;5083534;28;20020;-76
2023/02/26 03:38:49;;;;;;;11.80;5.75;;;;;;;;;;5088861;28;20028;-74
2023/02/26 03:41:22;;;;;;;6.25;4.90;;;;;;;;;;5077353;28;20471;-75
2023/02/26 03:43:52;;;;;;;7.53;5.00;;;;;;;;;;5094737;28;20055;-75
2023/02/26 03:46:21;;;;;;;6.53;5.05;;;;;;;;;;5064841;28;20028;-75
2023/02/26 03:48:50;;;;;;;7.10;5.38;;;;;;;;;;5089299;28;20058;-75
2023/02/26 03:51:19;;;;;;;9.82;5.97;;;;;;;;;;5073578;28;20070;-75
2023/02/26 03:53:51;;;;;;;8.73;5.95;;;;;;;;;;5081067;28;20454;-76
2023/02/26 03:56:17;;;;;;;6.80;5.15;;;;;;;;;;5064439;28;20425;-75
2023/02/26 03:58:44;;;;;;;7.65;5.50;;;;;;;;;;5088554;28;20081;-76
2023/02/26 04:01:14;;;;;;;7.00;5.70;;;;;;;;;;5077043;28;20028;-76
2023/02/26 04:03:45;;;;;;;9.13;5.45;;;;;;;;;;5087624;28;20032;-76
2023/02/26 04:06:11;;;;;;;6.97;5.10;;;;;;;;;;5084375;28;20028;-76
2023/02/26 04:08:38;;;;;;;8.38;5.30;;;;;;;;;;5079365;28;20036;-76
2023/02/26 04:11:18;;;;;;;5.70;5.10;;;;;;;;;;5090072;28;20431;-76
2023/02/26 04:13:45;;;;;;;7.20;5.00;;;;;;;;;;5080288;28;20485;-75
2023/02/26 04:16:11;;;;;;;6.63;5.15;;;;;;;;;;5083256;28;20047;-77
2023/02/26 04:18:37;;;;;;;6.63;5.45;;;;;;;;;;5087208;28;20028;-76
2023/02/26 04:21:03;;;;;;;6.93;5.22;;;;;;;;;;5076665;28;20055;-76
2023/02/26 04:23:29;;;;;;;9.80;4.70;;;;;;;;;;5088907;28;20130;-75
2023/02/26 04:25:55;;;;;;;6.03;4.63;;;;;;;;;;5081593;28;20020;-75
2023/02/26 04:28:21;;;;;;;8.77;5.00;;;;;;;;;;5081158;28;20059;-76
2023/02/26 04:30:48;;;;;;;6.40;4.18;;;;;;;;;;5088895;28;20024;-76
2023/02/26 04:33:17;;;;;;;8.13;4.55;;;;;;;;;;5076513;28;20040;-76
2023/02/26 04:35:43;;;;;;;5.30;4.28;;;;;;;;;;5086824;28;20451;-75
2023/02/26 04:38:09;;;;;;;6.47;4.22;;;;;;;;;;5082550;28;20052;-75
2023/02/26 04:40:35;;;;;;;11.38;4.50;;;;;;;;;;5079441;28;20108;-74
2023/02/26 04:43:01;;;;;;;6.00;4.28;;;;;;;;;;5089977;28;20054;-75
2023/02/26 04:45:28;;;;;;;10.55;4.93;;;;;;;;;;5077686;28;20032;-76
2023/02/26 04:47:54;;;;;;;6.82;4.30;;;;;;;;;;5084631;28;20113;-75
2023/02/26 04:50:20;;;;;;;7.05;4.47;;;;;;;;;;5084455;28;20027;-76
2023/02/26 04:52:46;;;;;;;9.48;4.03;;;;;;;;;;5074261;28;20024;-75
2023/02/26 04:55:12;;;;;;;9.80;4.20;;;;;;;;;;5075948;28;20092;-76
2023/02/26 04:57:38;;;;;;;4.93;4.00;;;;;;;;;;5086842;28;20421;-76
2023/02/26 05:00:06;;;;;;;4.70;3.83;;;;;;;;;;5082079;28;20076;-76
2023/02/26 05:02:32;;;;;;;5.85;3.42;;;;;;;;;;5093092;28;20035;-76
2023/02/26 05:04:58;;;;;;;6.40;3.85;;;;;;;;;;5076171;28;20032;-76
2023/02/26 05:07:24;;;;;;;6.60;3.45;;;;;;;;;;5088602;28;20417;-76
2023/02/26 05:09:50;;;;;;;4.00;3.17;;;;;;;;;;5072401;28;20032;-74
2023/02/26 05:12:17;;;;;;;6.60;3.88;;;;;;;;;;5084007;28;20016;-75
2023/02/26 05:14:43;;;;;;;5.75;3.22;;;;;;;;;;5077721;28;20021;-75
2023/02/26 05:17:09;;;;;;;7.03;3.13;;;;;;;;;;5088908;28;20077;-74
2023/02/26 05:19:35;;;;;;;3.97;2.67;;;;;;;;;;5077839;28;20482;-75
2023/02/26 05:22:01;;;;;;;5.25;2.55;;;;;;;;;;5083371;28;20032;-75
2023/02/26 05:24:27;;;;;;;4.00;2.60;;;;;;;;;;5085073;28;20044;-75
2023/02/26 05:26:53;;;;;;;4.80;2.85;;;;;;;;;;5076158;28;20019;-75
2023/02/26 05:29:19;;;;;;;6.25;2.65;;;;;;;;;;5088753;28;20393;-73
2023/02/26 05:31:45;;;;;;;8.73;3.28;;;;;;;;;;5060793;28;20024;-75
2023/02/26 05:34:11;;;;;;;5.15;3.05;;;;;;;;;;5081830;28;20028;-75
2023/02/26 05:36:37;;;;;;;4.53;3.08;;;;;;;;;;5068309;28;20028;-75
2023/02/26 05:39:03;;;;;;;5.60;3.65;;;;;;;;;;5074932;28;20050;-76
2023/02/26 05:41:29;;;;;;;5.30;3.22;;;;;;;;;;5069206;28;20028;-76
2023/02/26 05:43:55;;;;;;;6.28;3.58;;;;;;;;;;5080075;28;20035;-77
2023/02/26 05:46:21;;;;;;;5.00;3.70;;;;;;;;;;5080024;28;20033;-77
2023/02/26 05:48:47;;;;;;;7.60;3.45;;;;;;;;;;5068648;28;20024;-75
2023/02/26 05:51:13;;;;;;;10.60;4.80;;;;;;;;;;5071762;28;20024;-75
2023/02/26 05:53:39;;;;;;;7.90;3.95;;;;;;;;;;5077774;28;20054;-75
2023/02/26 05:56:05;;;;;;;7.03;3.80;;;;;;;;;;5082157;28;20027;-75
2023/02/26 05:58:32;;;;;;;5.68;3.42;;;;;;;;;;5085074;28;20031;-76
2023/02/26 06:00:59;;;;;;;6.20;3.72;;;;;;;;;;5075058;28;20021;-76
2023/02/26 06:03:25;;;;;;;5.78;3.88;;;;;;;;;;5087893;28;20085;-76
2023/02/26 06:05:51;;;;;;;4.93;3.72;;;;;;;;;;5079831;28;20024;-76
2023/02/26 06:08:17;;;;;;;10.93;4.30;;;;;;;;;;5062119;28;20032;-76
2023/02/26 06:10:44;;;;;;;8.88;4.28;;;;;;;;;;5086685;28;20056;-76
2023/02/26 06:13:10;;;;;;;6.63;3.97;;;;;;;;;;5074605;28;20020;-76
2023/02/26 06:15:36;;;;;;;7.65;4.25;;;;;;;;;;5086309;28;20453;-76
2023/02/26 06:18:02;;;;;;;7.25;4.20;;;;;;;;;;5080876;28;20452;-77
2023/02/26 06:20:28;;;;;;;6.60;3.92;;;;;;;;;;5078865;28;20483;-76
2023/02/26 06:22:54;;;;;;;10.95;4.40;;;;;;;;;;5088716;28;20391;-76
2023/02/26 06:25:20;;;;;;;8.45;4.57;;;;;;;;;;5056931;28;20039;-76
2023/02/26 06:27:46;;;;;;;6.63;4.60;;;;;;;;;;5083939;28;20028;-77
2023/02/26 06:30:12;;;;;;;5.78;4.88;;;;;;;;;;5053256;28;20029;-77
2023/02/26 06:32:38;;;;;;;10.57;4.38;;;;;;;;;;5085342;28;20428;-76
2023/02/26 06:35:05;;;;;;;8.93;4.85;;;;;;;;;;5055735;28;20055;-77
2023/02/26 06:37:31;;;;;;;8.95;4.55;;;;;;;;;;5075992;28;20503;-75
2023/02/26 06:39:57;;;;;;;8.70;4.53;;;;;;;;;;5091480;28;20409;-76
2023/02/26 06:42:23;;;;;;;6.90;4.25;;;;;;;;;;5079076;28;20048;-75
2023/02/26 06:44:49;;;;;;;6.20;3.92;;;;;;;;;;5086815;28;20477;-77
2023/02/26 06:47:15;;;;;;;8.32;3.80;;;;;;;;;;5056364;28;20025;-77
2023/02/26 06:49:41;;;;;;;8.38;4.88;;;;;;;;;;5091478;28;20030;-76
2023/02/26 06:52:07;;;;;;;9.55;4.97;;;;;;;;;;5080833;28;20024;-76
2023/02/26 06:54:33;;;;;;;7.47;3.92;;;;;;;;;;5067051;28;20466;-76
2023/02/26 06:57:01;;;;;;;8.70;5.80;;;;;;;;;;5075206;28;20501;-74
2023/02/26 06:59:27;;;;;;;9.43;4.75;;;;;;;;;;5087325;28;20033;-78
2023/02/26 07:01:53;;;;;;;6.82;3.47;;;;;;;;;;5082884;28;20470;-78
2023/02/26 07:04:19;;;;;;;7.00;3.50;;;;;;;;;;5084672;28;20036;-76
2023/02/26 07:06:45;;;;;;;5.90;3.00;;;;;;;;;;5057303;28;20025;-77
2023/02/26 07:09:11;;;;;;;7.53;3.75;;;;;;;;;;5090271;28;20077;-77
2023/02/26 07:11:37;;;;;;;7.88;3.80;;;;;;;;;;5075145;28;20028;-77
2023/02/26 07:14:04;;;;;;;5.28;3.63;;;;;;;;;;5074908;28;20494;-77
2023/02/26 07:16:29;;;;;;;4.90;3.60;;;;;;;;;;5075128;28;20025;-75
2023/02/26 07:18:55;;;;;;;7.38;3.15;;;;;;;;;;5091308;28;20096;-78
2023/02/26 07:21:21;;;;;;;10.75;3.85;;;;;;;;;;5061742;28;20032;-77
2023/02/26 07:23:47;;;;;;;7.80;4.03;;;;;;;;;;5088515;28;20031;-77
2023/02/26 07:26:13;;;;;;;6.18;3.67;;;;;;;;;;5085778;28;20028;-77
2023/02/26 07:28:39;;;;;;;8.52;3.38;;;;;;;;;;5080242;28;20475;-75
2023/02/26 07:31:05;;;;;;;5.65;3.53;;;;;;;;;;5091412;28;20028;-75
2023/02/26 07:33:33;;;;;;;5.22;2.83;;;;;;;;;;5079962;28;20027;-76
2023/02/26 07:35:59;;;;;;;5.70;3.53;;;;;;;;;;5086213;28;20021;-76
2023/02/26 07:38:25;;;;;;;10.05;3.20;;;;;;;;;;5068658;28;20032;-76
2023/02/26 07:40:55;;;;;;;5.55;3.05;;;;;;;;;;5078510;28;20555;-77
2023/02/26 07:43:21;;;;;;;9.35;3.28;;;;;;;;;;5061515;28;20111;-78
2023/02/26 07:45:49;;;;;;;5.32;3.60;;;;;;;;;;5069046;28;20501;-77
2023/02/26 07:48:15;;;;;;;9.43;3.72;;;;;;;;;;5084808;28;20024;-76
2023/02/26 07:50:41;;;;;;;7.07;3.03;;;;;;;;;;5079678;28;20078;-77
2023/02/26 07:53:07;;;;;;;6.20;3.10;;;;;;;;;;5074871;28;20020;-76
2023/02/26 07:55:33;;;;;;;4.65;2.83;;;;;;;;;;5089058;28;20071;-77
2023/02/26 07:57:59;;;;;;;8.88;2.97;;;;;;;;;;5082706;28;20059;-75
2023/02/26 08:00:25;;;;;;;5.35;3.05;;;;;;;;;;5063362;28;20056;-76
2023/02/26 08:02:51;;;;;;;6.28;2.88;;;;;;;;;;5090094;28;20447;-76
2023/02/26 08:05:17;;;;;;;5.13;3.58;;;;;;;;;;5077154;28;20048;-77
2023/02/26 08:07:43;;;;;;;7.68;3.35;;;;;;;;;;5086991;28;20028;-77
2023/02/26 08:10:10;;;;;;;6.03;3.10;;;;;;;;;;5065975;28;20027;-77
2023/02/26 08:12:36;;;;;;;8.15;3.42;;;;;;;;;;5079337;28;20029;-77
2023/02/26 08:15:02;;;;;;;5.70;3.03;;;;;;;;;;5090261;28;20020;-77
2023/02/26 08:17:29;;;;;;;7.80;3.53;;;;;;;;;;5077660;28;20035;-76
2023/02/26 08:19:55;;;;;;;5.70;3.40;;;;;;;;;;5085452;28;20459;-77
2023/02/26 08:22:22;;;;;;;9.98;3.20;;;;;;;;;;5085211;28;20031;-77
2023/02/26 08:24:49;;;;;;;8.07;3.40;;;;;;;;;;5078361;28;20033;-76
2023/02/26 08:27:15;;;;;;;6.35;3.35;;;;;;;;;;5090029;28;20466;-75
2023/02/26 08:29:41;;;;;;;4.97;2.90;;;;;;;;;;5080033;28;20548;-77
2023/02/26 08:32:08;;;;;;;4.40;2.83;;;;;;;;;;5083948;28;20422;-76
2023/02/26 08:34:34;;;;;;;8.82;3.85;;;;;;;;;;5087380;28;20481;-77
2023/02/26 08:37:00;;;;;;;6.60;3.13;;;;;;;;;;5081710;28;20520;-75
2023/02/26 08:39:26;;;;;;;8.10;3.30;;;;;;;;;;5078363;28;20047;-77
2023/02/26 08:41:52;;;;;;;5.10;2.75;;;;;;;;;;5089266;28;20024;-75
2023/02/26 08:44:18;;;;;;;8.85;3.28;;;;;;;;;;5086166;28;20486;-78
2023/02/26 08:46:44;;;;;;;8.32;3.35;;;;;;;;;;5089122;28;20027;-78
2023/02/26 08:49:10;;;;;;;4.90;3.53;;;;;;;;;;5076487;28;20028;-76
2023/02/26 08:51:36;;;;;;;7.18;3.60;;;;;;;;;;5092549;28;20024;-76
2023/02/26 08:54:02;;;;;;;5.57;2.35;;;;;;;;;;5081937;28;20025;-77
2023/02/26 08:56:28;;;;;;;4.32;2.72;;;;;;;;;;5057037;28;20077;-77
2023/02/26 08:58:54;;;;;;;5.15;2.20;;;;;;;;;;5088084;28;20593;-77
2023/02/26 09:01:20;;;;;;;6.78;2.28;;;;;;;;;;5067197;28;20028;-78
2023/02/26 09:03:46;;;;;;;6.57;2.60;;;;;;;;;;5072357;28;20402;-76
2023/02/26 09:06:12;;;;;;;9.02;2.50;;;;;;;;;;5081095;28;20024;-75
2023/02/26 09:08:38;;;;;;;4.35;2.40;;;;;;;;;;5067193;28;20093;-76
2023/02/26 09:11:04;;;;;;;3.50;2.17;;;;;;;;;;5074830;28;20020;-77
2023/02/26 09:13:30;;;;;;;6.95;2.33;;;;;;;;;;5056232;28;20024;-76
2023/02/26 09:15:57;;;;;;;8.82;3.28;;;;;;;;;;5072472;28;20020;-76
2023/02/26 09:18:23;;;;;;;5.63;2.00;;;;;;;;;;5064034;28;20120;-76
2023/02/26 09:20:49;;;;;;;5.60;2.22;;;;;;;;;;5082333;28;20032;-77
2023/02/26 09:23:15;;;;;;;11.98;2.95;;;;;;;;;;5088763;28;20032;-76
2023/02/26 09:25:41;;;;;;;3.08;1.98;;;;;;;;;;5078341;28;20497;-76
2023/02/26 09:28:07;;;;;;;4.40;1.75;;;;;;;;;;5082311;28;20409;-76
2023/02/26 09:30:33;;;;;;;8.75;2.05;;;;;;;;;;5070074;28;20021;-76
2023/02/26 09:32:59;;;;;;;5.75;2.33;;;;;;;;;;5088947;28;20051;-73
2023/02/26 09:35:25;;;;;;;3.95;2.15;;;;;;;;;;5076131;28;20759;-75
2023/02/26 09:37:51;;;;;;;6.63;2.42;;;;;;;;;;5084141;28;20052;-73
2023/02/26 09:40:25;;;;;;;6.05;1.95;;;;;;;;;;5083197;28;20447;-73
2023/02/26 09:43:06;;;;;;;6.25;2.25;;;;;;;;;;5076473;28;20037;-73
2023/02/26 09:45:41;;;;;;;4.82;1.95;;;;;;;;;;5061817;28;20039;-76
2023/02/26 09:48:11;;;;;;;7.25;2.20;;;;;;;;;;5071456;28;20024;-76
2023/02/26 09:50:40;;;;;;;5.43;2.67;;;;;;;;;;5078688;28;20024;-77
2023/02/26 09:53:24;;;;;;;3.70;2.25;;;;;;;;;;5071670;28;20158;-75
2023/02/26 09:55:51;;;;;;;7.85;2.10;;;;;;;;;;5082410;28;20105;-75
2023/02/26 09:58:22;;;;;;;7.80;2.25;;;;;;;;;;5080934;28;20024;-75
2023/02/26 10:01:26;;;;;;;4.13;1.60;;;;;;;;;;5074332;28;20059;-78
2023/02/26 10:03:52;;;;;;;6.28;1.85;;;;;;;;;;4995268;28;20359;-75
2023/02/26 10:06:18;;;;;;;4.50;2.25;;;;;;;;;;4995966;28;20109;-75
2023/02/26 10:08:44;;;;;;;5.65;1.92;;;;;;;;;;5024646;28;20065;-77
2023/02/26 10:11:25;;;;;;;2.75;1.77;;;;;;;;;;5074610;28;20017;-77
2023/02/26 10:13:57;;;;;;;6.63;1.83;;;;;;;;;;5083879;28;20126;-75
2023/02/26 10:16:26;;;;;;;25.13;7.78;;;;;;;;;;5083548;28;20111;-74
2023/02/26 10:18:59;;;;;;;8.05;3.65;;;;;;;;;;5056962;28;20463;-75
2023/02/26 10:22:01;;;;;;;9.43;1.92;;;;;;;;;;5060114;28;20053;-76
2023/02/26 10:24:39;;;;;;;7.10;1.60;;;;;;;;;;4982121;28;20497;-75
2023/02/26 10:27:09;;;;;;;7.05;1.92;;;;;;;;;;5044493;28;20489;-74
2023/02/26 10:29:38;;;;;;;3.88;1.23;;;;;;;;;;5085158;28;20032;-74
2023/02/26 10:32:22;;;;;;;4.85;2.03;;;;;;;;;;5080523;28;20028;-73
2023/02/26 10:35:07;;;;;;;4.45;1.55;;;;;;;;;;5057154;28;20020;-74
2023/02/26 10:37:52;;;;;;;4.20;1.80;;;;;;;;;;5065931;28;20441;-74
2023/02/26 10:40:37;;;;;;;3.47;1.10;;;;;;;;;;5084234;28;20105;-74
2023/02/26 10:43:16;;;;;;;3.33;1.48;;;;;;;;;;5073752;28;20024;-74
2023/02/26 10:45:42;;;;;;;5.43;1.65;;;;;;;;;;5081406;28;20028;-74
2023/02/26 10:48:34;;;;;;;3.92;1.77;;;;;;;;;;5085069;28;20370;-74
2023/02/26 10:51:01;;;;;;;3.20;1.55;;;;;;;;;;5053385;28;20039;-74
2023/02/26 10:53:28;;;;;;;2.65;1.55;;;;;;;;;;5091152;28;20490;-75
2023/02/26 10:56:17;;;;;;;6.53;2.10;;;;;;;;;;5065002;28;20034;-74
2023/02/26 10:58:43;;;;;;;10.98;5.28;;;;;;;;;;5067221;28;20058;-76
2023/02/26 11:01:17;;;;;;;14.45;5.40;;;;;;;;;;5091653;28;20445;-76
2023/02/26 11:03:44;;;;;;;12.93;3.63;;;;;;;;;;5081719;28;20023;-74
2023/02/26 11:06:14;;;;;;;8.38;2.90;;;;;;;;;;5084932;28;20025;-74
2023/02/26 11:08:41;;;;;;;14.30;4.10;;;;;;;;;;5071207;28;20115;-75
2023/02/26 11:11:08;;;;;;;6.88;3.38;;;;;;;;;;5078526;28;20031;-74
2023/02/26 11:13:34;;;;;;;4.43;2.35;;;;;;;;;;5071821;28;20027;-75
2023/02/26 11:16:05;;;;;;;5.60;3.35;;;;;;;;;;5084196;28;20024;-75
2023/02/26 11:18:31;;;;;;;;;;;;;;;;;;5081927;28;20064;-75
2023/02/26 11:20:59;;;;;;;7.32;3.13;;;;;;;;;;5092010;28;19904;-75
2023/02/26 11:23:27;;;;;;;19.75;9.07;;;;;;;;;;5062820;28;20036;-75
2023/02/26 11:26:04;;;;;;;4.90;2.63;;;;;;;;;;5088209;28;20108;-75
2023/02/26 11:28:43;;;;;;;4.65;3.20;;;;;;;;;;5091714;28;20062;-75
2023/02/26 11:31:10;;;;;;;9.10;3.10;;;;;;;;;;5083076;28;20023;-75
2023/02/26 11:33:43;;;;;;;16.45;4.20;;;;;;;;;;5076025;28;20039;-77
2023/02/26 11:36:14;;;;;;;7.80;2.75;;;;;;;;;;5088336;28;20031;-75
2023/02/26 11:38:40;;;;;;;;;;;;;;;;;;5080616;28;20063;-76
2023/02/26 11:41:06;;;;;;;5.38;2.75;;;;;;;;;;5091220;28;19904;-74
2023/02/26 11:43:40;;;;;;;4.63;1.30;;;;;;;;;;5079762;28;20039;-75
2023/02/26 11:46:06;;;;;;;8.75;3.47;;;;;;;;;;5085689;28;20036;-75
2023/02/26 11:48:38;;;;;;;4.38;1.13;;;;;;;;;;5070102;28;20025;-75
2023/02/26 11:51:04;;;;;;;9.27;1.73;;;;;;;;;;5060570;28;20109;-75
2023/02/26 11:53:35;;;;;;;4.18;1.10;;;;;;;;;;5080880;28;20099;-75
2023/02/26 11:56:03;;;;;;;3.72;1.52;;;;;;;;;;5084189;28;20029;-75
2023/02/26 11:58:34;;;;;;;7.43;1.70;;;;;;;;;;5085021;28;20494;-74
2023/02/26 12:01:01;;;;;;;7.63;1.98;;;;;;;;;;5077138;28;20039;-75
2023/02/26 12:03:31;;;;;;;5.10;1.20;;;;;;;;;;5089078;28;20016;-76
2023/02/26 12:05:59;;;;;;;7.40;2.15;;;;;;;;;;5082256;28;20259;-74
2023/02/26 12:08:27;;;;;;;3.13;1.20;;;;;;;;;;5081413;28;20095;-75
2023/02/26 12:10:53;;;;;;;3.00;1.58;;;;;;;;;;5090194;28;20093;-76
2023/02/26 12:13:27;;;;;;;4.57;1.30;;;;;;;;;;5068393;28;20440;-76
2023/02/26 12:15:55;;;;;;;3.92;1.63;;;;;;;;;;5075499;28;20050;-76
2023/02/26 12:18:21;;;;;;;5.50;1.92;;;;;;;;;;5070865;28;20393;-76
2023/02/26 12:20:57;;;;;;;8.43;2.20;;;;;;;;;;5076291;28;20025;-75
2023/02/26 12:23:40;;;;;;;3.97;1.35;;;;;;;;;;5099578;23;20131;-74
2023/02/26 12:26:19;;;;;;;3.92;2.17;;;;;;;;;;5103508;28;20466;-74
2023/02/26 12:28:57;;;;;;;5.60;1.30;;;;;;;;;;5108475;28;20457;-73
2023/02/26 12:31:26;;;;;;;6.30;1.33;;;;;;;;;;5096316;28;20122;-74
2023/02/26 12:34:12;;;;;;;3.10;0.98;;;;;;;;;;5084209;28;20103;-73
2023/02/26 12:36:44;;;;;;;3.38;1.65;;;;;;;;;;5067832;28;20073;-74
2023/02/26 12:39:29;;;;;;;4.63;1.33;;;;;;;;;;5075836;28;20497;-74
2023/02/26 12:42:02;;;;;;;5.68;2.05;;;;;;;;;;5084252;28;20035;-74
2023/02/26 12:44:28;;;;;;;3.25;0.85;;;;;;;;;;5066751;28;20020;-74
2023/02/26 12:46:57;;;;;;;5.60;1.95;;;;;;;;;;5076245;28;20111;-73
2023/02/26 12:49:42;;;;;;;3.78;1.05;;;;;;;;;;5059189;28;20062;-74
2023/02/26 12:52:08;;;;;;;4.97;2.35;;;;;;;;;;5083021;28;20024;-74
2023/02/26 12:54:34;;;;;;;6.80;4.22;;;;;;;;;;5079347;28;20094;-72
2023/02/26 12:57:09;;;;;;;4.82;2.00;;;;;;;;;;5089142;28;20024;-71
2023/02/26 12:59:35;;;;;;;4.97;1.10;;;;;;;;;;5077570;28;20028;-71
2023/02/26 13:02:01;;;;;;;4.38;1.40;;;;;;;;;;5083660;28;20025;-72
2023/02/26 13:04:27;;;;;;;6.68;2.28;;;;;;;;;;5085125;28;20108;-73
2023/02/26 13:07:01;;;;;;;8.10;2.40;;;;;;;;;;5076192;28;20559;-73
2023/02/26 13:09:33;;;;;;;8.68;3.17;;;;;;;;;;5060742;28;20024;-73
2023/02/26 13:12:17;;;;;;;5.18;2.00;;;;;;;;;;5083984;28;20044;-73
2023/02/26 13:14:49;;;;;;;5.55;1.85;;;;;;;;;;5087379;28;20397;-74
2023/02/26 13:17:38;;;;;;;6.40;2.38;;;;;;;;;;5075626;28;20031;-72
2023/02/26 13:20:13;;;;;;;8.30;2.88;;;;;;;;;;5069465;28;20462;-73
2023/02/26 13:22:42;;;;;;;10.55;2.60;;;;;;;;;;5086530;28;20028;-73
2023/02/26 13:25:14;;;;;;;7.63;3.58;;;;;;;;;;5075693;28;20383;-74
2023/02/26 13:27:40;;;;;;;6.57;1.35;;;;;;;;;;5085874;28;20112;-73
2023/02/26 13:30:09;;;;;;;6.07;1.42;;;;;;;;;;5081998;28;20047;-74
2023/02/26 13:32:37;;;;;;;2.92;1.40;;;;;;;;;;5078063;28;20052;-71
2023/02/26 13:35:05;;;;;;;3.03;1.23;;;;;;;;;;5088214;28;20045;-72
2023/02/26 13:37:33;;;;;;;3.13;0.70;;;;;;;;;;5058371;28;20486;-72
2023/02/26 13:40:18;;;;;;;10.48;4.03;;;;;;;;;;5082995;28;20123;-73
2023/02/26 13:42:44;;;;;;;12.30;4.60;;;;;;;;;;5086021;28;20031;-74
2023/02/26 13:45:29;;;;;;;7.00;2.40;;;;;;;;;;5073111;28;20095;-73
2023/02/26 13:47:57;;;;;;;4.65;1.13;;;;;;;;;;5081663;28;20035;-73
2023/02/26 13:50:42;;;;;;;3.40;0.90;;;;;;;;;;5082046;28;20509;-72
2023/02/26 13:53:25;;;;;;;3.90;2.17;;;;;;;;;;5087373;28;20099;-73
2023/02/26 13:55:52;;;;;;;5.55;1.20;;;;;;;;;;5075922;28;20153;-74
2023/02/26 13:58:28;;;;;;;5.10;1.15;;;;;;;;;;5071537;28;20427;-74
2023/02/26 14:01:01;;;;;;;1.92;1.50;;;;;;;;;;5077184;28;20032;-73
2023/02/26 14:03:27;;;;;;;14.57;2.53;;;;;;;;;;5057795;28;20032;-73
2023/02/26 14:05:55;;;;;;;7.13;1.75;;;;;;;;;;5077303;28;20424;-74
2023/02/26 14:08:39;;;;;;;4.43;1.50;;;;;;;;;;5078033;28;20028;-72
2023/02/26 14:11:23;;;;;;;3.10;1.08;;;;;;;;;;5085618;28;20020;-74
2023/02/26 14:14:08;;;;;;;4.97;2.00;;;;;;;;;;5076964;28;20093;-74
2023/02/26 14:16:34;;;;;;;4.13;1.40;;;;;;;;;;5076213;28;20079;-72
2023/02/26 14:19:05;;;;;;;6.15;1.38;;;;;;;;;;5086226;28;20073;-75
2023/02/26 14:21:30;;;;;;;5.28;1.83;;;;;;;;;;5075959;28;20028;-73
2023/02/26 14:23:58;;;;;;;7.80;3.35;;;;;;;;;;5082967;28;20074;-74
2023/02/26 14:26:25;;;;;;;6.65;1.98;;;;;;;;;;5083213;28;20032;-74
2023/02/26 14:29:04;;;;;;;2.72;1.50;;;;;;;;;;5075080;28;20081;-73
2023/02/26 14:31:49;;;;;;;6.43;1.65;;;;;;;;;;5060642;28;20085;-73
2023/02/26 14:34:16;;;;;;;4.30;1.73;;;;;;;;;;5080630;28;20028;-73
2023/02/26 14:36:46;;;;;;;3.65;2.05;;;;;;;;;;5086024;28;20023;-74
2023/02/26 14:39:27;;;;;;;5.93;1.83;;;;;;;;;;5074473;28;20096;-74
2023/02/26 14:42:01;;;;;;;9.27;2.55;;;;;;;;;;5064983;28;20497;-73
2023/02/26 14:44:34;;;;;;;5.00;1.98;;;;;;;;;;5083795;28;20028;-73
2023/02/26 14:47:00;;;;;;;4.38;1.58;;;;;;;;;;5074295;28;20029;-73
2023/02/26 14:49:33;;;;;;;4.57;1.58;;;;;;;;;;5086871;28;20051;-74
2023/02/26 14:51:59;;;;;;;4.78;1.85;;;;;;;;;;5061810;28;20028;-73
2023/02/26 14:54:38;;;;;;;5.57;2.45;;;;;;;;;;5079143;28;20536;-74
2023/02/26 14:57:04;;;;;;;4.05;2.00;;;;;;;;;;5087550;28;20432;-72
2023/02/26 14:59:33;;;;;;;4.38;2.33;;;;;;;;;;5075837;28;20039;-74